Wednesday, October 1, 2014, 6:17 PM EDT

KFYJ, West Point, Middle Peninsula Regional Airport

Location: Shacklefords, VA, United States Lat: 37.521
Local Time: 6:17 PM EDT (22:17 GMT) Lon: -76.764
Time Zone: US/Eastern Elev: 22 ft

Show me the last for .
Show Decoded

2014-10-01 17:55 METAR KFYJ 012155Z AUTO 00000KT 10SM SCT110 23/17 A3001 RMK AO2 T02310165 =
2014-10-01 17:35 METAR KFYJ 012135Z AUTO 03003KT 10SM BKN110 23/16 A3001 RMK AO2 T02330161 =
2014-10-01 17:15 METAR KFYJ 012115Z AUTO 05004KT 10SM BKN110 24/16 A3000 RMK AO2 T02400156 =
2014-10-01 16:55 METAR KFYJ 012055Z AUTO 05004KT 10SM SCT043 SCT070 BKN100 25/15 A3000 RMK AO2
                 T02510150 =
2014-10-01 16:35 METAR KFYJ 012035Z AUTO 04004KT 10SM BKN045 BKN070 26/15 A3000 RMK AO2 T02580148
                 =
2014-10-01 16:15 METAR KFYJ 012015Z AUTO 08005KT 10SM SCT045 26/15 A3000 RMK AO2 T02550148 =
2014-10-01 15:55 METAR KFYJ 011955Z AUTO 05003KT 10SM SCT110 24/16 A3000 RMK AO2 T02410155 =
2014-10-01 15:35 METAR KFYJ 011935Z AUTO 04006KT 10SM SCT060 SCT110 25/15 A3000 RMK AO2 T02520153
                 =
2014-10-01 15:15 METAR KFYJ 011915Z AUTO 04005KT 10SM SCT029 SCT035 OVC060 26/16 A3000 RMK AO2
                 T02640156 =
2014-10-01 14:55 METAR KFYJ 011855Z AUTO 05006KT 10SM SCT031 BKN038 BKN050 25/16 A3000 RMK AO2
                 T02540156 =
2014-10-01 14:35 METAR KFYJ 011835Z AUTO 06006KT 10SM SCT050 26/15 A3000 RMK AO2 T02630152 =
2014-10-01 14:15 METAR KFYJ 011815Z AUTO 04003KT 10SM SCT039 BKN048 26/15 A3000 RMK AO2 T02560149
                 =
2014-10-01 13:55 METAR KFYJ 011755Z AUTO 06004KT 10SM SCT035 SCT047 27/15 A3000 RMK AO2 T02650149
                 10265 20176 =
2014-10-01 13:35 METAR KFYJ 011735Z AUTO 06004KT 10SM SCT045 26/15 A3001 RMK AO2 T02640149 =
2014-10-01 13:15 METAR KFYJ 011715Z AUTO 05006KT 10SM SCT031 SCT043 25/15 A3002 RMK AO2 T02480152
                 =
2014-10-01 12:55 METAR KFYJ 011655Z AUTO 34005KT 10SM BKN031 BKN040 27/15 A3002 RMK AO2 T02650152
                 =
2014-10-01 12:35 METAR KFYJ 011635Z AUTO 01005KT 10SM BKN029 BKN036 26/15 A3003 RMK AO2 T02620147
                 =
2014-10-01 12:15 METAR KFYJ 011615Z AUTO 36006KT 10SM SCT029 SCT033 26/15 A3003 RMK AO2 T02610152
                 =
2014-10-01 11:55 METAR KFYJ 011555Z AUTO 04006KT 10SM CLR 25/15 A3003 RMK AO2 T02540153 =
2014-10-01 11:35 METAR KFYJ 011535Z AUTO 05003KT 10SM SCT021 SCT027 24/16 A3003 RMK AO2 T02410162
                 =
2014-10-01 11:15 METAR KFYJ 011515Z AUTO 35003KT 10SM BKN019 OVC027 24/16 A3003 RMK AO2 T02370164
                 =
2014-10-01 10:55 METAR KFYJ 011455Z AUTO 09003KT 10SM SCT019 BKN024 25/17 A3003 RMK AO2 T02480167
                 =
2014-10-01 10:35 METAR KFYJ 011435Z AUTO 01003KT 10SM SCT012 SCT018 24/17 A3003 RMK AO2 T02360167
                 =
2014-10-01 10:15 METAR KFYJ 011415Z AUTO 04004KT 10SM BKN012 23/17 A3003 RMK AO2 T02300171 =
2014-10-01 09:55 METAR KFYJ 011355Z AUTO 06003KT 10SM BKN010 23/18 A3002 RMK AO2 T02270180 =
2014-10-01 09:35 METAR KFYJ 011335Z AUTO 03003KT 10SM SCT008 SCT035 22/19 A3002 RMK AO2 T02210188
                 =
2014-10-01 09:15 METAR KFYJ 011315Z AUTO 04003KT 10SM CLR 21/20 A3002 RMK AO2 T02100195 =
2014-10-01 08:55 METAR KFYJ 011255Z AUTO 00000KT 10SM CLR 20/19 A3001 RMK AO2 T01990187 =
2014-10-01 08:35 METAR KFYJ 011235Z AUTO 00000KT 7SM CLR 19/18 A3001 RMK AO2 T01920180 =
2014-10-01 08:15 METAR KFYJ 011215Z AUTO 33003KT 5SM CLR 19/17 A3000 RMK AO2 T01850172 =
2014-10-01 07:55 METAR KFYJ 011155Z AUTO 00000KT 7SM SCT027 17/16 A2999 RMK AO2 70001 T01720161
                 10172 20147 =
2014-10-01 07:35 METAR KFYJ 011135Z AUTO 00000KT 5SM SCT015 SCT019 BKN028 17/16 A2999 RMK AO2
                 T01670157 =
2014-10-01 07:15 METAR KFYJ 011115Z AUTO 00000KT 7SM SCT016 BKN021 BKN026 16/15 A2998 RMK AO2
                 T01590148 =
2014-10-01 06:55 METAR KFYJ 011055Z AUTO 00000KT 5SM SCT020 BKN030 16/15 A2998 RMK AO2 T01560145
                 =
2014-10-01 06:35 METAR KFYJ 011035Z AUTO 00000KT 5SM BKN021 16/15 A2997 RMK AO2 T01560145 =
2014-10-01 06:15 METAR KFYJ 011015Z AUTO 00000KT 10SM BKN021 16/15 A2996 RMK AO2 T01560145 =
2014-10-01 05:55 METAR KFYJ 010955Z AUTO 00000KT 7SM SCT019 16/15 A2995 RMK AO2 T01560145 =
2014-10-01 05:35 METAR KFYJ 010935Z AUTO 00000KT 7SM SCT017 16/15 A2995 RMK AO2 T01560145 =
2014-10-01 05:15 METAR KFYJ 010915Z AUTO 00000KT 7SM BKN015 16/15 A2995 RMK AO2 T01570146 =
2014-10-01 04:55 METAR KFYJ 010855Z AUTO 00000KT 4SM SCT015 BKN080 16/15 A2995 RMK AO2 T01550145
                 =
2014-10-01 04:35 METAR KFYJ 010835Z AUTO 00000KT 7SM SCT015 BKN080 15/14 A2995 RMK AO2 T01510141
                 =
2014-10-01 04:15 METAR KFYJ 010815Z AUTO 00000KT 7SM SCT100 15/14 A2995 RMK AO2 T01530142 =
2014-10-01 03:55 METAR KFYJ 010755Z AUTO 00000KT 7SM SCT100 16/14 A2994 RMK AO2 T01550144 =
2014-10-01 03:35 METAR KFYJ 010735Z AUTO 00000KT 5SM BKN110 16/15 A2994 RMK AO2 T01600148 =
2014-10-01 03:15 METAR KFYJ 010715Z AUTO 00000KT 5SM BKN110 16/15 A2993 RMK AO2 T01580146 =
2014-10-01 02:55 METAR KFYJ 010655Z AUTO 00000KT 5SM SCT001 BKN110 16/14 A2994 RMK AO2 T01560144
                 =
2014-10-01 02:35 METAR KFYJ 010635Z AUTO 00000KT 1 1/4SM BKN001 BKN120 15/14 A2995 RMK AO2
                 T01510139 =
2014-10-01 02:15 METAR KFYJ 010615Z AUTO 00000KT 10SM BKN001 16/15 A2995 RMK AO2 T01570145 =
2014-10-01 01:55 METAR KFYJ 010555Z AUTO 00000KT 7SM SCT001 16/14 A2995 RMK AO2 T01550143 10195
                 20153 402490153 =
2014-10-01 01:35 METAR KFYJ 010535Z AUTO 00000KT 5SM SCT020 17/16 A2995 RMK AO2 T01690158 =
2014-10-01 01:15 METAR KFYJ 010515Z AUTO 00000KT 7SM SCT020 16/15 A2995 RMK AO2 T01620150 =
2014-10-01 00:55 METAR KFYJ 010455Z AUTO 00000KT 7SM CLR 16/15 A2995 RMK AO2 T01580146 =
2014-10-01 00:35 METAR KFYJ 010435Z AUTO 00000KT 1 1/4SM VV007 16/15 A2995 RMK AO2 VIS 1/2V4
                 T01610149 =
2014-10-01 00:15 METAR KFYJ 010415Z AUTO 00000KT 4SM CLR 16/15 A2995 RMK AO2 T01610149 =
2014-09-30 23:55 METAR KFYJ 010355Z AUTO 00000KT 10SM CLR 17/16 A2994 RMK AO2 T01680156 =
2014-09-30 23:35 METAR KFYJ 010335Z AUTO 00000KT 10SM CLR 16/15 A2994 RMK AO2 T01610148 =
2014-09-30 23:15 METAR KFYJ 010315Z AUTO 00000KT 5SM CLR 17/15 A2994 RMK AO2 T01650152 =
2014-09-30 22:55 METAR KFYJ 010255Z AUTO 00000KT 10SM SCT021 16/15 A2994 RMK AO2 T01630150 =
2014-09-30 22:35 METAR KFYJ 010235Z AUTO 00000KT 10SM BKN021 16/15 A2994 RMK AO2 T01630150 =
2014-09-30 22:15 METAR KFYJ 010215Z AUTO 00000KT 5SM SCT021 17/15 A2994 RMK AO2 T01660152 =
2014-09-30 21:55 METAR KFYJ 010155Z AUTO 00000KT 10SM CLR 18/17 A2993 RMK AO2 T01810167 =
2014-09-30 21:35 METAR KFYJ 010135Z AUTO 00000KT 7SM CLR 18/17 A2993 RMK AO2 T01800165 =
2014-09-30 21:15 METAR KFYJ 010115Z AUTO 00000KT 7SM CLR 18/16 A2991 RMK AO2 T01780162 =
2014-09-30 20:55 METAR KFYJ 010055Z AUTO 00000KT 10SM CLR 19/17 A2991 RMK AO2 T01850170 =
2014-09-30 20:35 METAR KFYJ 010035Z AUTO 00000KT 10SM CLR 19/17 A2990 RMK AO2 T01880172 =
2014-09-30 20:15 METAR KFYJ 010015Z AUTO 00000KT 7SM SCT029 19/18 A2991 RMK AO2 T01920175 =
2014-09-30 19:55 METAR KFYJ 302355Z AUTO 00000KT 7SM BKN027 19/17 A2990 RMK AO2 T01930174 10249
                 20193 =
2014-09-30 19:35 METAR KFYJ 302335Z AUTO 00000KT 10SM SCT027 20/18 A2990 RMK AO2 T01990181 =
2014-09-30 19:15 METAR KFYJ 302315Z AUTO 00000KT 10SM SCT027 20/18 A2990 RMK AO2 T02000175 =
2014-09-30 18:55 METAR KFYJ 302255Z AUTO 00000KT 10SM SCT027 21/18 A2989 RMK AO2 T02050177 =
2014-09-30 18:35 METAR KFYJ 302235Z AUTO 00000KT 10SM SCT027 22/18 A2988 RMK AO2 T02220175 =

Support USWX by starting your Amazon purchase here.